Time;durP1;ratioP1;P1;durP2;ratioP2;P2;SDS_P1;SDS_P2;PMS_P1;PMS_P2;Temp;Humidity;BMP_temperature;BMP_pressure;BME280_temperature;BME280_humidity;BME280_pressure;Samples;Min_cycle;Max_cycle;Signal;HPM_P1;HPM_P2
2023/01/05 00:00:44;;;;;;;;;;;;;;;18.63;47.98;101263.44;5153370;27;20020;-59
2023/01/05 00:03:09;;;;;;;;;;;;;;;18.63;48.02;101263.44;5153544;27;19934;-58
2023/01/05 00:05:35;;;;;;;;;;;;;;;18.63;48.02;101271.69;5152389;27;19927;-58
2023/01/05 00:08:00;;;;;;;;;;;;;;;18.63;47.80;101266.19;5153592;27;20300;-59
2023/01/05 00:24:15;;;;;;;;;;;;;;;18.62;47.80;101279.16;5137344;27;19950;-59
2023/01/05 00:26:40;;;;;;;;;;;;;;;18.63;48.05;101282.72;5153123;27;20312;-59
2023/01/05 00:29:06;;;;;;;;;;;;;;;18.62;48.05;101284.66;5152629;27;20035;-59
2023/01/05 00:31:31;;;;;;;;;;;;;;;18.63;48.12;101277.22;5152793;27;20381;-59
2023/01/05 00:33:57;;;;;;;;;;;;;;;18.62;47.86;101281.91;5153142;27;19927;-58
2023/01/05 00:36:23;;;;;;;;;;;;;;;18.63;47.88;101266.19;5152819;27;19923;-58
2023/01/05 00:38:49;;;;;;;;;;;;;;;18.63;48.17;101280.81;5153106;27;19987;-58
2023/01/05 00:41:14;;;;;;;;;;;;;;;18.63;48.09;101280.81;5153163;27;19923;-59
2023/01/05 00:43:40;;;;;;;;;;;;;;;18.64;47.87;101284.38;5134943;27;20317;-59
2023/01/05 00:46:05;;;;;;;;;;;;;;;18.64;48.14;101278.88;5142663;27;19975;-59
2023/01/05 00:48:31;;;;;;;;;;;;;;;18.64;48.10;101276.09;5152768;27;19923;-59
2023/01/05 00:50:56;;;;;;;;;;;;;;;18.63;48.08;101266.19;5152661;27;19923;-59
2023/01/05 00:53:22;;;;;;;;;;;;;;;18.63;48.15;101278.03;5152310;27;19930;-59
2023/01/05 00:55:55;;;;;;;;;;;;;;;18.62;48.02;101279.16;5152341;27;19927;-59
2023/01/05 00:58:21;;;;;;;;;;;;;;;18.63;48.14;101286.31;5152183;27;20279;-59
2023/01/05 01:00:46;;;;;;;;;;;;;;;18.63;48.04;101291.84;5152527;27;19930;-58
2023/01/05 01:03:13;;;;;;;;;;;;;;;18.64;48.15;101298.19;5152576;27;20022;-58
2023/01/05 01:05:38;;;;;;;;;;;;;;;18.63;47.86;101297.34;5152066;27;19927;-58
2023/01/05 01:08:04;;;;;;;;;;;;;;;18.63;47.86;101299.28;5152581;27;19927;-58
2023/01/05 01:10:30;;;;;;;;;;;;;;;18.63;48.12;101294.59;5152707;27;20279;-59
2023/01/05 01:12:55;;;;;;;;;;;;;;;18.63;48.09;101291.00;5140713;27;19971;-59
2023/01/05 01:15:21;;;;;;;;;;;;;;;18.63;47.80;101294.59;5134823;27;19923;-59
2023/01/05 01:17:47;;;;;;;;;;;;;;;18.64;47.87;101298.19;5151967;27;19923;-59
2023/01/05 01:20:12;;;;;;;;;;;;;;;18.63;47.93;101297.34;5152097;27;20063;-59
2023/01/05 01:22:38;;;;;;;;;;;;;;;18.63;48.09;101307.56;5150862;27;20390;-59
2023/01/05 01:25:04;;;;;;;;;;;;;;;18.64;48.08;101309.22;5149418;27;19980;-59
2023/01/05 01:27:29;;;;;;;;;;;;;;;18.64;47.98;101300.94;5131854;28;20398;-59
2023/01/05 01:29:55;;;;;;;;;;;;;;;18.64;47.84;101306.44;5149821;27;20059;-59
2023/01/05 01:32:23;;;;;;;;;;;;;;;18.62;47.82;101303.97;5152468;27;19923;-59
2023/01/05 01:34:48;;;;;;;;;;;;;;;18.62;47.94;101301.22;5152233;27;19927;-58
2023/01/05 01:37:14;;;;;;;;;;;;;;;18.62;48.09;101309.50;5131486;27;19980;-59
2023/01/05 01:39:40;;;;;;;;;;;;;;;18.63;48.17;101300.13;5112450;28;19927;-59
2023/01/05 01:42:05;;;;;;;;;;;;;;;18.64;47.98;101306.44;5149005;27;19923;-59
2023/01/05 01:44:51;;;;;;;;;;;;;;;18.64;48.08;101311.97;5154109;27;20259;-59
2023/01/05 01:47:20;;;;;;;;;;;;;;;18.64;48.13;101320.25;5112690;28;19973;-59
2023/01/05 01:49:46;;;;;;;;;;;;;;;18.64;48.06;101323.84;5131295;28;19923;-58
2023/01/05 01:52:11;;;;;;;;;;;;;;;18.63;48.03;101324.13;5131388;28;20275;-59
2023/01/05 01:54:37;;;;;;;;;;;;;;;18.63;48.15;101319.41;5130967;28;19933;-59
2023/01/05 01:57:03;;;;;;;;;;;;;;;18.64;47.81;101321.06;5150216;27;20394;-59
2023/01/05 01:59:28;;;;;;;;;;;;;;;18.63;47.93;101319.41;5151418;27;19927;-58
2023/01/05 02:01:55;;;;;;;;;;;;;;;18.64;48.06;101334.88;5151743;27;19927;-58
2023/01/05 02:04:20;;;;;;;;;;;;;;;18.64;48.12;101331.28;5151261;27;19933;-59
2023/01/05 02:06:47;;;;;;;;;;;;;;;18.64;47.95;101345.06;5151406;27;19923;-59
2023/01/05 02:09:12;;;;;;;;;;;;;;;18.63;48.08;101341.50;5151697;27;20423;-59
2023/01/05 02:11:58;;;;;;;;;;;;;;;18.63;48.09;101333.22;5151275;27;19923;-59
2023/01/05 02:14:25;;;;;;;;;;;;;;;18.64;47.99;101336.81;5114916;28;19958;-59
2023/01/05 02:16:56;;;;;;;;;;;;;;;18.63;48.19;101324.94;5147692;27;20040;-59
2023/01/05 02:19:30;;;;;;;;;;;;;;;18.63;47.87;101327.69;5134364;27;19930;-59
2023/01/05 02:22:15;;;;;;;;;;;;;;;18.64;48.12;101320.25;5151371;27;19938;-59
2023/01/05 02:25:01;;;;;;;;;;;;;;;18.64;47.86;101334.03;5149783;27;19923;-59
2023/01/05 02:27:34;;;;;;;;;;;;;;;18.63;48.03;101327.69;5114932;28;19923;-59
2023/01/05 02:30:09;;;;;;;;;;;;;;;18.63;48.05;101333.22;5149515;27;19962;-59
2023/01/05 02:32:46;;;;;;;;;;;;;;;18.64;47.97;101332.09;5151478;27;19927;-59
2023/01/05 02:35:17;;;;;;;;;;;;;;;18.64;48.13;101332.09;5151105;27;20333;-58
2023/01/05 02:37:44;;;;;;;;;;;;;;;18.64;48.07;101329.34;5151380;27;19923;-58
2023/01/05 02:40:13;;;;;;;;;;;;;;;18.63;47.89;101327.69;5132136;27;19994;-58
2023/01/05 02:42:39;;;;;;;;;;;;;;;18.65;48.04;101341.22;5169108;27;19973;-59
2023/01/05 02:45:05;;;;;;;;;;;;;;;18.64;47.83;101350.59;5167734;27;19926;-59
2023/01/05 02:47:34;;;;;;;;;;;;;;;18.63;48.08;101340.66;5130025;28;19931;-59
2023/01/05 02:50:00;;;;;;;;;;;;;;;18.64;48.16;101342.31;5130284;28;19980;-59
2023/01/05 02:52:25;;;;;;;;;;;;;;;18.65;48.17;101350.34;5130379;28;19938;-59
2023/01/05 02:54:52;;;;;;;;;;;;;;;18.63;47.97;101355.28;5130078;27;20340;-59
2023/01/05 02:57:19;;;;;;;;;;;;;;;18.63;48.06;101355.28;5130462;28;19945;-59
2023/01/05 02:59:46;;;;;;;;;;;;;;;18.63;47.86;101358.03;5128314;27;19923;-59
2023/01/05 03:02:12;;;;;;;;;;;;;;;18.64;48.12;101350.59;5151177;27;19958;-59
2023/01/05 03:04:40;;;;;;;;;;;;;;;18.64;48.06;101339.56;5150741;27;19927;-59
2023/01/05 03:07:07;;;;;;;;;;;;;;;18.64;48.11;101348.66;5131482;27;19971;-58
2023/01/05 03:09:37;;;;;;;;;;;;;;;18.64;47.84;101348.66;5130061;28;19967;-59
2023/01/05 03:15:18;;;;;;;;;;;;;;;18.63;47.93;101352.53;5105617;27;20379;-56
2023/01/05 03:17:45;;;;;;;;;;;;;;;18.63;48.13;101344.25;5150696;27;19930;-56
2023/01/05 03:20:11;;;;;;;;;;;;;;;18.64;47.83;101351.41;5150555;27;20318;-56
2023/01/05 03:37:13;;;;;;;;;;;;;;;18.64;48.23;101364.38;5117162;28;19931;-56
2023/01/05 03:39:39;;;;;;;;;;;;;;;18.64;48.13;101369.91;5116230;28;19934;-56
2023/01/05 03:42:06;;;;;;;;;;;;;;;18.64;48.14;101362.47;5159398;27;19976;-56
2023/01/05 03:44:33;;;;;;;;;;;;;;;18.64;47.84;101369.91;5174671;27;20274;-56
2023/01/05 03:46:59;;;;;;;;;;;;;;;18.64;48.17;101367.97;5137933;27;20398;-56
2023/01/05 03:49:24;;;;;;;;;;;;;;;18.64;48.19;101365.22;5133418;28;19923;-56
2023/01/05 03:51:50;;;;;;;;;;;;;;;18.65;47.97;101366.03;5132399;28;19976;-56
2023/01/05 03:54:16;;;;;;;;;;;;;;;18.64;47.90;101364.38;5132759;28;19924;-56
2023/01/05 03:56:41;;;;;;;;;;;;;;;18.64;48.04;101373.50;5132508;27;19924;-56
2023/01/05 03:59:07;;;;;;;;;;;;;;;18.64;48.08;101378.19;5144156;27;19934;-56
2023/01/05 04:01:32;;;;;;;;;;;;;;;18.64;48.10;101367.97;5153749;27;19930;-56
2023/01/05 04:03:58;;;;;;;;;;;;;;;18.65;47.94;101366.03;5153522;27;20328;-56
2023/01/05 04:06:24;;;;;;;;;;;;;;;18.63;47.90;101369.06;5140248;27;19927;-56
2023/01/05 04:08:49;;;;;;;;;;;;;;;18.64;47.95;101370.72;5132807;28;20281;-56
2023/01/05 04:11:16;;;;;;;;;;;;;;;18.63;47.99;101366.31;5132743;28;19949;-56
2023/01/05 04:13:42;;;;;;;;;;;;;;;18.64;47.84;101361.63;5124825;27;19976;-56
2023/01/05 04:16:07;;;;;;;;;;;;;;;18.64;47.92;101356.94;5124682;27;19927;-56
2023/01/05 04:18:33;;;;;;;;;;;;;;;18.63;47.90;101366.31;5153405;27;19934;-56
2023/01/05 04:20:58;;;;;;;;;;;;;;;18.64;47.97;101370.72;5153434;27;20286;-56
2023/01/05 04:23:24;;;;;;;;;;;;;;;18.64;47.88;101365.22;5152722;27;19927;-56
2023/01/05 04:25:49;;;;;;;;;;;;;;;18.65;48.15;101371.56;5144460;27;20071;-55
2023/01/05 04:28:15;;;;;;;;;;;;;;;18.65;47.83;101379.84;5136988;27;19923;-56
2023/01/05 04:30:43;;;;;;;;;;;;;;;18.64;47.92;101376.25;5134136;27;19926;-56
2023/01/05 04:33:08;;;;;;;;;;;;;;;18.64;48.15;101376.25;5153065;27;20367;-57
2023/01/05 04:35:34;;;;;;;;;;;;;;;18.65;47.95;101385.34;5146934;27;19972;-56
2023/01/05 04:37:59;;;;;;;;;;;;;;;18.64;47.98;101383.69;5132353;28;19927;-56
2023/01/05 04:40:25;;;;;;;;;;;;;;;18.64;48.14;101384.53;5132620;28;19928;-56
2023/01/05 04:42:50;;;;;;;;;;;;;;;18.64;47.79;101381.75;5171328;27;19927;-56
2023/01/05 04:45:16;;;;;;;;;;;;;;;18.65;48.02;101391.72;5166613;27;19924;-56
2023/01/05 04:47:41;;;;;;;;;;;;;;;18.65;47.96;101397.25;5132499;28;19924;-56
2023/01/05 04:50:07;;;;;;;;;;;;;;;18.64;47.93;101387.28;5132434;27;19930;-56
2023/01/05 04:52:33;;;;;;;;;;;;;;;18.66;48.14;101392.56;5132260;28;19945;-56
2023/01/05 04:54:58;;;;;;;;;;;;;;;18.64;47.93;101392.81;5131335;27;19927;-56
2023/01/05 04:57:24;;;;;;;;;;;;;;;18.64;48.15;101398.31;5131640;28;19923;-55
2023/01/05 04:59:50;;;;;;;;;;;;;;;18.65;47.93;101396.38;5149423;27;20073;-56
2023/01/05 05:02:15;;;;;;;;;;;;;;;18.64;48.15;101395.56;5152951;27;19927;-56
2023/01/05 05:04:41;;;;;;;;;;;;;;;18.65;47.87;101404.66;5152528;27;19946;-56
2023/01/05 05:07:06;;;;;;;;;;;;;;;18.65;47.94;101402.75;5133261;27;19930;-56
2023/01/05 05:09:32;;;;;;;;;;;;;;;18.64;47.85;101401.06;5132006;28;19923;-56
2023/01/05 05:11:58;;;;;;;;;;;;;;;18.65;48.13;101396.38;5131853;27;19927;-56
2023/01/05 05:14:23;;;;;;;;;;;;;;;18.64;48.07;101395.56;5131784;28;19923;-56
2023/01/05 05:16:49;;;;;;;;;;;;;;;18.64;47.87;101390.03;5131364;27;19927;-56
2023/01/05 05:19:14;;;;;;;;;;;;;;;18.64;47.94;101392.81;5131894;28;19935;-56
2023/01/05 05:21:40;;;;;;;;;;;;;;;18.65;47.93;101390.88;5131699;28;19924;-56
2023/01/05 05:24:05;;;;;;;;;;;;;;;18.65;48.10;101399.13;5131430;28;19930;-56
2023/01/05 05:26:31;;;;;;;;;;;;;;;18.65;48.12;101400.00;5150307;27;19923;-55
2023/01/05 05:28:57;;;;;;;;;;;;;;;18.65;47.87;101401.91;5151749;27;20290;-56
2023/01/05 05:31:23;;;;;;;;;;;;;;;18.64;48.03;101406.59;5133283;27;19930;-56
2023/01/05 05:33:49;;;;;;;;;;;;;;;18.65;48.01;101402.75;5133527;27;19923;-56
2023/01/05 05:36:14;;;;;;;;;;;;;;;18.65;47.83;101407.41;5140421;27;20319;-56
2023/01/05 05:38:40;;;;;;;;;;;;;;;18.65;47.92;101402.75;5112998;28;19974;-56
2023/01/05 05:41:05;;;;;;;;;;;;;;;18.64;47.88;101406.59;5140112;27;19927;-56
2023/01/05 05:43:31;;;;;;;;;;;;;;;18.65;47.81;101413.78;5164582;27;19965;-56
2023/01/05 05:45:56;;;;;;;;;;;;;;;18.65;47.83;101416.56;5151260;27;19923;-56
2023/01/05 05:48:22;;;;;;;;;;;;;;;18.65;47.88;101427.59;5152218;27;19945;-56
2023/01/05 05:50:48;;;;;;;;;;;;;;;18.64;47.85;101428.66;5151970;27;19980;-56
2023/01/05 05:53:13;;;;;;;;;;;;;;;18.64;47.92;101434.19;5151873;27;20517;-56
2023/01/05 05:55:39;;;;;;;;;;;;;;;18.65;48.09;101440.53;5145170;27;19939;-56
2023/01/05 05:58:04;;;;;;;;;;;;;;;18.65;47.67;101441.38;5133846;27;20338;-55
2023/01/05 06:00:30;;;;;;;;;;;;;;;18.64;47.98;101442.47;5151178;27;19923;-56
2023/01/05 06:02:55;;;;;;;;;;;;;;;18.64;47.92;101450.72;5132115;27;20300;-56
2023/01/05 06:05:21;;;;;;;;;;;;;;;18.66;47.94;101464.28;5151342;27;19930;-56
2023/01/05 06:07:47;;;;;;;;;;;;;;;18.66;47.87;101464.28;5151645;27;20008;-56
2023/01/05 06:10:12;;;;;;;;;;;;;;;18.66;47.76;101454.06;5151743;27;19923;-56
2023/01/05 06:12:38;;;;;;;;;;;;;;;18.65;48.04;101462.59;5142624;27;19935;-56
2023/01/05 06:15:04;;;;;;;;;;;;;;;18.65;48.13;101465.34;5132128;27;19966;-56
2023/01/05 06:17:29;;;;;;;;;;;;;;;18.64;47.85;101464.53;5151697;27;19927;-56
2023/01/05 06:19:55;;;;;;;;;;;;;;;18.64;48.06;101467.28;5151667;27;20374;-56
2023/01/05 06:22:21;;;;;;;;;;;;;;;18.65;48.06;101468.13;5151850;27;20145;-56
2023/01/05 06:24:46;;;;;;;;;;;;;;;18.64;47.92;101464.53;5151092;27;19952;-56
2023/01/05 06:27:12;;;;;;;;;;;;;;;18.65;48.09;101476.38;5150814;27;19924;-56
2023/01/05 06:29:37;;;;;;;;;;;;;;;18.65;47.87;101468.13;5150982;27;20283;-56
2023/01/05 06:32:03;;;;;;;;;;;;;;;18.65;47.70;101473.63;5151505;27;19948;-56
2023/01/05 06:34:28;;;;;;;;;;;;;;;18.64;48.06;101481.06;5150986;27;20252;-56
2023/01/05 06:36:55;;;;;;;;;;;;;;;18.65;47.95;101479.16;5150731;27;19923;-56
2023/01/05 06:39:27;;;;;;;;;;;;;;;18.65;47.97;101485.53;5151328;27;19934;-56
2023/01/05 06:41:52;;;;;;;;;;;;;;;18.65;47.80;101482.75;5159853;27;20301;-56
2023/01/05 06:44:18;;;;;;;;;;;;;;;18.66;48.03;101494.63;5136211;27;19923;-56
2023/01/05 06:46:43;;;;;;;;;;;;;;;18.65;47.84;101481.91;5130264;27;19950;-56
2023/01/05 06:49:10;;;;;;;;;;;;;;;18.65;48.00;101490.19;5130656;28;19928;-56
2023/01/05 06:51:36;;;;;;;;;;;;;;;18.64;48.19;101489.34;5130432;28;19927;-56
2023/01/05 06:54:02;;;;;;;;;;;;;;;18.65;47.79;101484.66;5129979;28;20329;-56
2023/01/05 06:56:27;;;;;;;;;;;;;;;18.65;47.85;101491.03;5130395;27;20070;-56
2023/01/05 06:58:53;;;;;;;;;;;;;;;18.65;47.76;101491.03;5139486;27;19927;-56
2023/01/05 07:01:18;;;;;;;;;;;;;;;18.65;47.84;101499.31;5151048;27;19923;-56
2023/01/05 07:03:44;;;;;;;;;;;;;;;18.65;47.94;101499.31;5150734;27;19930;-56
2023/01/05 07:06:11;;;;;;;;;;;;;;;18.64;48.04;101494.88;5139639;27;19980;-56
2023/01/05 07:08:40;;;;;;;;;;;;;;;18.65;47.80;101501.22;5129670;28;20349;-56
2023/01/05 07:11:06;;;;;;;;;;;;;;;18.64;47.84;101500.38;5130301;28;19931;-56
2023/01/05 07:13:31;;;;;;;;;;;;;;;18.65;48.02;101501.22;5130249;27;19984;-56
2023/01/05 07:15:57;;;;;;;;;;;;;;;18.64;47.96;101508.66;5133167;27;19931;-56
2023/01/05 07:18:22;;;;;;;;;;;;;;;18.65;47.95;101509.50;5133956;28;20486;-56
2023/01/05 07:20:48;;;;;;;;;;;;;;;18.66;47.79;101508.44;5133892;28;19924;-56
2023/01/05 07:23:13;;;;;;;;;;;;;;;18.64;48.03;101516.94;5133299;28;19971;-56
2023/01/05 07:25:39;;;;;;;;;;;;;;;18.65;47.80;101515.88;5133433;27;20381;-56
2023/01/05 07:28:04;;;;;;;;;;;;;;;18.65;48.03;101520.53;5136221;27;19931;-56
2023/01/05 07:30:30;;;;;;;;;;;;;;;18.64;47.93;101525.22;5151336;27;19927;-56
2023/01/05 07:32:56;;;;;;;;;;;;;;;18.65;48.05;101517.78;5154180;27;19923;-56
2023/01/05 07:35:22;;;;;;;;;;;;;;;18.65;48.03;101523.28;5149583;27;19954;-56
2023/01/05 07:37:47;;;;;;;;;;;;;;;18.65;47.92;101529.66;5133349;28;19935;-56
2023/01/05 07:40:13;;;;;;;;;;;;;;;18.63;47.89;101518.03;5133426;28;19949;-56
2023/01/05 07:42:39;;;;;;;;;;;;;;;18.65;47.97;101520.53;5141643;27;19927;-56
2023/01/05 07:45:05;;;;;;;;;;;;;;;18.65;47.74;101521.38;5153833;27;19976;-56
2023/01/05 07:47:30;;;;;;;;;;;;;;;18.64;47.95;101514.19;5135447;27;19958;-56
2023/01/05 07:49:56;;;;;;;;;;;;;;;18.65;47.77;101520.53;5154127;27;19945;-56
2023/01/05 07:52:21;;;;;;;;;;;;;;;18.64;48.02;101518.88;5154052;27;19979;-56
2023/01/05 07:54:47;;;;;;;;;;;;;;;18.65;47.94;101542.59;5153551;27;19945;-56
2023/01/05 07:57:12;;;;;;;;;;;;;;;18.64;47.68;101547.28;5153714;27;19927;-56
2023/01/05 07:59:38;;;;;;;;;;;;;;;18.65;47.94;101546.22;5153353;27;20383;-54
2023/01/05 08:02:04;;;;;;;;;;;;;;;18.65;47.77;101550.88;5153710;27;19927;-56
2023/01/05 08:04:29;;;;;;;;;;;;;;;18.64;47.79;101552.81;5153497;27;19923;-56
2023/01/05 08:06:55;;;;;;;;;;;;;;;18.65;47.92;101564.66;5153380;27;19927;-56
2023/01/05 08:12:06;;;;;;;;;;;;;;;18.65;47.95;101567.44;5123571;27;19981;-56
2023/01/05 08:14:32;;;;;;;;;;;;;;;18.65;47.69;101567.44;5153221;27;19926;-56
2023/01/05 08:16:57;;;;;;;;;;;;;;;18.63;47.94;101564.94;5153526;27;19927;-56
2023/01/05 08:19:23;;;;;;;;;;;;;;;18.65;47.96;101575.72;5153415;27;20096;-56
2023/01/05 08:21:49;;;;;;;;;;;;;;;18.65;47.85;101578.47;5153567;27;20252;-56
2023/01/05 08:24:14;;;;;;;;;;;;;;;18.64;47.76;101574.06;5153124;27;19923;-56
2023/01/05 08:26:40;;;;;;;;;;;;;;;18.65;47.93;101575.72;5152960;27;20339;-55
2023/01/05 08:29:05;;;;;;;;;;;;;;;18.64;47.79;101572.13;5152903;27;19934;-56
2023/01/05 08:31:36;;;;;;;;;;;;;;;18.65;47.65;101579.31;5152241;27;19930;-56
2023/01/05 08:34:02;;;;;;;;;;;;;;;18.64;47.97;101577.63;5153255;27;19927;-56
2023/01/05 08:36:30;;;;;;;;;;;;;;;18.64;48.00;101574.88;5152955;27;20417;-56
2023/01/05 08:38:55;;;;;;;;;;;;;;;18.64;47.69;101571.28;5153330;27;19979;-56
2023/01/05 08:41:24;;;;;;;;;;;;;;;18.63;47.76;101581.50;5146394;27;19988;-56
2023/01/05 08:43:50;;;;;;;;;;;;;;;18.65;47.71;101582.09;5151343;27;19926;-56
2023/01/05 08:46:16;;;;;;;;;;;;;;;18.64;47.97;101583.16;5152663;27;19924;-56
2023/01/05 08:48:42;;;;;;;;;;;;;;;18.64;47.73;101598.88;5153177;27;19931;-56
2023/01/05 08:51:07;;;;;;;;;;;;;;;18.65;47.62;101595.00;5153159;27;19971;-56
2023/01/05 08:53:33;;;;;;;;;;;;;;;18.64;47.94;101594.19;5152413;27;19950;-56
2023/01/05 08:55:59;;;;;;;;;;;;;;;18.64;47.77;101596.13;5133994;27;19957;-56
2023/01/05 08:58:25;;;;;;;;;;;;;;;18.64;47.85;101602.47;5134105;27;19931;-56
2023/01/05 09:00:52;;;;;;;;;;;;;;;18.64;47.93;101607.97;5152522;27;19968;-56
2023/01/05 09:03:18;;;;;;;;;;;;;;;18.65;47.91;101606.06;5152703;27;19923;-56
2023/01/05 09:05:43;;;;;;;;;;;;;;;18.64;47.95;101598.88;5152317;27;19929;-56
2023/01/05 09:08:09;;;;;;;;;;;;;;;18.65;47.97;101614.31;5152630;27;20421;-56
2023/01/05 09:10:34;;;;;;;;;;;;;;;18.64;47.92;101607.97;5152764;27;19930;-56
2023/01/05 09:13:00;;;;;;;;;;;;;;;18.65;47.97;101617.09;5152580;27;19949;-56
2023/01/05 09:15:25;;;;;;;;;;;;;;;18.64;47.66;101619.00;5152149;27;20291;-56
2023/01/05 09:17:51;;;;;;;;;;;;;;;18.64;47.94;101629.22;5152538;27;19934;-56
2023/01/05 09:20:17;;;;;;;;;;;;;;;18.64;47.89;101638.31;5152614;27;19946;-56
2023/01/05 09:22:43;;;;;;;;;;;;;;;18.64;47.93;101626.47;5152481;27;19994;-56
2023/01/05 09:25:09;;;;;;;;;;;;;;;18.64;47.70;101630.06;5151982;27;19923;-56
2023/01/05 09:27:35;;;;;;;;;;;;;;;18.64;48.01;101634.75;5152312;27;20331;-56
2023/01/05 09:30:01;;;;;;;;;;;;;;;18.64;47.92;101637.50;5151799;27;19933;-56
2023/01/05 09:32:27;;;;;;;;;;;;;;;18.65;47.84;101644.69;5151571;27;19923;-56
2023/01/05 09:34:52;;;;;;;;;;;;;;;18.64;47.89;101643.84;5152063;27;20316;-56
2023/01/05 09:37:18;;;;;;;;;;;;;;;18.63;47.89;101642.19;5151259;27;20406;-56
2023/01/05 09:39:44;;;;;;;;;;;;;;;18.64;47.75;101646.59;5133571;27;19948;-56
2023/01/05 09:42:11;;;;;;;;;;;;;;;18.63;47.93;101655.97;5142847;27;19923;-56
2023/01/05 09:44:39;;;;;;;;;;;;;;;18.63;47.91;101664.25;5133421;27;19923;-56
2023/01/05 09:47:14;;;;;;;;;;;;;;;18.64;47.87;101665.09;5152049;27;19923;-56
2023/01/05 09:49:39;;;;;;;;;;;;;;;18.64;47.67;101665.91;5133491;27;20398;-56
2023/01/05 09:52:08;;;;;;;;;;;;;;;18.63;47.63;101658.75;5152107;27;19927;-56
2023/01/05 09:54:33;;;;;;;;;;;;;;;18.64;47.76;101671.44;5132224;27;20310;-56
2023/01/05 09:56:59;;;;;;;;;;;;;;;18.65;47.78;101675.03;5132950;27;20393;-56
2023/01/05 09:59:41;;;;;;;;;;;;;;;18.64;47.61;101670.59;5135140;27;20451;-56
2023/01/05 10:02:13;;;;;;;;;;;;;;;18.64;47.98;101679.72;5151022;27;19967;-56
2023/01/05 10:04:39;;;;;;;;;;;;;;;18.64;47.70;101685.22;5151359;27;20332;-56
2023/01/05 10:07:06;;;;;;;;;;;;;;;18.64;47.94;101673.38;5151488;27;19968;-56
2023/01/05 10:09:34;;;;;;;;;;;;;;;18.64;47.87;101678.88;5132485;27;20313;-56
2023/01/05 10:14:52;;;;;;;;;;;;;;;18.64;47.71;101681.63;5123125;27;19924;-56
2023/01/05 10:17:18;;;;;;;;;;;;;;;18.64;47.65;101685.22;5130594;27;20134;-56
2023/01/05 10:20:15;;;;;;;;;;;;;;;18.65;47.85;101688.81;5101127;28;20294;-56
2023/01/05 10:22:45;;;;;;;;;;;;;;;18.64;47.93;101689.91;5112482;28;20490;-56
2023/01/05 10:25:15;;;;;;;;;;;;;;;18.64;47.86;101687.16;5130360;27;20309;-56
2023/01/05 10:27:43;;;;;;;;;;;;;;;18.64;47.79;101689.91;5130401;28;19939;-56
2023/01/05 10:30:12;;;;;;;;;;;;;;;18.64;47.61;101695.44;5150501;27;20368;-56
2023/01/05 10:32:45;;;;;;;;;;;;;;;18.64;47.95;101698.19;5151348;27;19929;-56
2023/01/05 10:35:22;;;;;;;;;;;;;;;18.63;47.89;101700.13;5150479;27;19931;-56
2023/01/05 10:38:12;;;;;;;;;;;;;;;18.64;47.86;101707.31;5135863;27;19924;-56
2023/01/05 10:40:41;;;;;;;;;;;;;;;18.64;47.85;101703.72;5151730;27;19923;-56
2023/01/05 10:43:13;;;;;;;;;;;;;;;18.63;47.63;101708.41;5172230;27;19969;-56
2023/01/05 10:45:39;;;;;;;;;;;;;;;18.63;47.71;101702.88;5159428;27;19927;-56
2023/01/05 10:48:26;;;;;;;;;;;;;;;18.63;47.59;101699.28;5116849;28;19923;-56
2023/01/05 10:50:52;;;;;;;;;;;;;;;18.64;47.72;101709.22;5115961;28;20059;-56
2023/01/05 10:53:19;;;;;;;;;;;;;;;18.64;47.87;101709.22;5133784;28;19976;-56
2023/01/05 10:55:50;;;;;;;;;;;;;;;18.64;47.66;101709.22;5133825;27;20428;-56
2023/01/05 10:58:24;;;;;;;;;;;;;;;18.63;47.87;101713.91;5119523;27;19931;-56
2023/01/05 11:00:49;;;;;;;;;;;;;;;18.64;47.63;101723.03;5135007;27;19931;-56
2023/01/05 11:03:15;;;;;;;;;;;;;;;18.63;47.87;101713.91;5135997;27;19923;-56
2023/01/05 11:05:44;;;;;;;;;;;;;;;18.63;47.65;101711.16;5148075;27;20395;-56
2023/01/05 11:08:13;;;;;;;;;;;;;;;18.64;47.73;101720.25;5115777;28;20287;-56
2023/01/05 11:10:41;;;;;;;;;;;;;;;18.64;47.59;101712.00;5133616;28;19923;-56
2023/01/05 11:13:16;;;;;;;;;;;;;;;18.64;47.87;101712.00;5111765;27;19924;-56
2023/01/05 11:15:42;;;;;;;;;;;;;;;18.64;47.89;101710.06;5119080;27;19931;-56
2023/01/05 11:18:17;;;;;;;;;;;;;;;18.64;47.62;101712.00;5133772;28;20010;-56
2023/01/05 11:21:00;;;;;;;;;;;;;;;18.64;47.89;101709.22;5133736;28;20386;-56
2023/01/05 11:23:32;;;;;;;;;;;;;;;18.64;47.79;101712.81;5133154;28;20238;-56
2023/01/05 11:26:08;;;;;;;;;;;;;;;18.64;47.59;101707.31;5132846;27;20442;-56
2023/01/05 11:28:34;;;;;;;;;;;;;;;18.63;47.77;101702.06;5140227;27;19930;-56
2023/01/05 11:31:02;;;;;;;;;;;;;;;18.64;47.66;101707.31;5154288;27;19922;-56
2023/01/05 11:33:28;;;;;;;;;;;;;;;18.64;47.70;101706.47;5135147;27;19930;-56
2023/01/05 11:35:54;;;;;;;;;;;;;;;18.65;47.62;101713.66;5151910;27;20405;-56
2023/01/05 11:38:24;;;;;;;;;;;;;;;18.64;47.96;101701.78;5153404;27;20308;-56
2023/01/05 11:40:49;;;;;;;;;;;;;;;18.64;47.84;101709.22;5152914;27;19929;-56
2023/01/05 11:43:15;;;;;;;;;;;;;;;18.63;47.60;101711.16;5154025;27;19924;-56
2023/01/05 11:45:44;;;;;;;;;;;;;;;18.65;47.76;101710.88;5153739;27;20386;-56
2023/01/05 11:48:12;;;;;;;;;;;;;;;18.64;47.76;101721.09;5154242;27;19923;-56
2023/01/05 11:50:43;;;;;;;;;;;;;;;18.65;48.02;101719.16;5154155;27;19923;-56
2023/01/05 11:53:21;;;;;;;;;;;;;;;18.63;47.72;101719.44;5153185;27;20527;-56
2023/01/05 11:55:46;;;;;;;;;;;;;;;18.64;47.80;101720.25;5153506;27;20388;-56
2023/01/05 12:01:06;;;;;;;;;;;;;;;18.64;47.79;101710.06;5189845;27;19929;-56
2023/01/05 12:03:52;;;;;;;;;;;;;;;18.64;47.92;101709.22;5160965;27;19927;-56
2023/01/05 12:06:43;;;;;;;;;;;;;;;18.64;47.89;101704.53;5168374;27;19922;-56
2023/01/05 12:09:13;;;;;;;;;;;;;;;18.65;47.72;101703.47;5152439;27;19927;-56
2023/01/05 12:11:41;;;;;;;;;;;;;;;18.64;47.75;101714.75;5168873;27;19923;-56
2023/01/05 12:14:18;;;;;;;;;;;;;;;18.63;47.90;101708.41;5156304;27;19923;-56
2023/01/05 12:16:45;;;;;;;;;;;;;;;18.64;47.89;101703.72;5147853;27;19929;-56
2023/01/05 12:19:14;;;;;;;;;;;;;;;18.64;47.76;101699.03;5147846;27;19938;-56
2023/01/05 12:21:44;;;;;;;;;;;;;;;18.64;47.95;101706.47;5147780;27;19927;-56
2023/01/05 12:27:19;;;;;;;;;;;;;;;18.64;47.71;101707.31;5190067;27;19925;-56
2023/01/05 12:29:50;;;;;;;;;;;;;;;18.64;47.89;101704.53;5156707;27;20383;-56
2023/01/05 12:35:24;;;;;;;;;;;;;;;18.64;47.91;101710.06;5189884;27;19925;-57
2023/01/05 12:38:10;;;;;;;;;;;;;;;18.64;47.70;101709.22;5178807;27;19923;-56
2023/01/05 12:43:17;;;;;;;;;;;;;;;18.64;47.94;101715.56;5190705;27;19926;-57
2023/01/05 12:46:02;;;;;;;;;;;;;;;18.64;47.97;101712.00;5189300;27;19962;-56
2023/01/05 12:48:30;;;;;;;;;;;;;;;18.64;48.06;101715.56;5174246;27;20404;-56
2023/01/05 12:51:16;;;;;;;;;;;;;;;18.64;48.03;101709.22;5189739;27;19979;-56
2023/01/05 12:54:01;;;;;;;;;;;;;;;18.63;47.98;101705.63;5173411;27;19956;-56
2023/01/05 12:56:28;;;;;;;;;;;;;;;18.64;48.00;101715.56;5173716;27;19926;-56
2023/01/05 12:59:13;;;;;;;;;;;;;;;18.64;47.96;101712.00;5189528;27;19927;-56
2023/01/05 13:01:42;;;;;;;;;;;;;;;18.65;47.74;101710.88;5173828;27;20259;-56
2023/01/05 13:04:28;;;;;;;;;;;;;;;18.64;48.05;101709.22;5170982;27;19923;-56
2023/01/05 13:07:05;;;;;;;;;;;;;;;18.64;47.70;101721.09;5136332;27;19923;-56
2023/01/05 13:09:30;;;;;;;;;;;;;;;18.64;47.83;101715.56;5147777;27;19974;-56
2023/01/05 13:11:59;;;;;;;;;;;;;;;18.64;47.78;101710.06;5147411;27;19927;-56
2023/01/05 13:14:26;;;;;;;;;;;;;;;18.64;47.75;101715.56;5161703;27;19930;-56
2023/01/05 13:16:52;;;;;;;;;;;;;;;18.63;47.63;101713.91;5149582;27;20491;-56
2023/01/05 13:19:25;;;;;;;;;;;;;;;18.65;47.69;101710.88;5150528;27;20002;-54
2023/01/05 13:21:51;;;;;;;;;;;;;;;18.65;47.71;101713.66;5149680;27;19931;-56
2023/01/05 13:24:36;;;;;;;;;;;;;;;18.64;47.98;101709.22;5168141;27;19972;-56
2023/01/05 13:27:02;;;;;;;;;;;;;;;18.64;47.84;101707.31;5152471;27;19965;-56